This is the latest recevied weather packets stored in our database for station/object SP1BMW-13. If no packets are shown the sender has not sent any weather packets the latest 10 day(s).
| Time | Temp. | Humidity | Pressure | Rain* | Wind** | Luminosity | Snow |
|---|---|---|---|---|---|---|---|
| 1788099701 | 27.22° C | 44% | 1007.8 hPa | 0 mm | 2.24 m/s, 259° | 136 W/m² | - |
| 1788099638 | 26.67° C | 46% | 1007.9 hPa | 0 mm | 1.34 m/s, 236° | 467 W/m² | - |
| 1788099580 | 26.67° C | 46% | 1007.9 hPa | 0 mm | 0.89 m/s, 58° | 471 W/m² | - |
| 1788099517 | 26.67° C | 46% | 1007.8 hPa | 0 mm | 1.34 m/s, 227° | 485 W/m² | - |
| 1788099460 | 26.67° C | 45% | 1007.8 hPa | 0 mm | 1.34 m/s, 246° | 502 W/m² | - |
| 1788099405 | 26.67° C | 45% | 1008 hPa | 0 mm | 2.68 m/s, 217° | 507 W/m² | - |
| 1788099338 | 26.67° C | 47% | 1007.9 hPa | 0 mm | 1.34 m/s, 310° | 364 W/m² | - |
| 1788099278 | 26.67° C | 47% | 1007.9 hPa | 0 mm | 0.89 m/s, 241° | 228 W/m² | - |
| 1788099218 | 26.67° C | 48% | 1007.8 hPa | 0 mm | 0 m/s | 168 W/m² | - |
| 1788099157 | 26.67° C | 46% | 1007.9 hPa | 0 mm | 0.89 m/s, 237° | 149 W/m² | - |
| 1788099101 | 26.67° C | 47% | 1007.6 hPa | 0 mm | 0.89 m/s, 321° | 147 W/m² | - |
| 1788099038 | 26.67° C | 46% | 1007.8 hPa | 0 mm | 0.89 m/s, 219° | 153 W/m² | - |
| 1788098977 | 26.67° C | 45% | 1007.7 hPa | 0 mm | 2.24 m/s, 310° | 160 W/m² | - |
| 1788098918 | 26.67° C | 46% | 1007.8 hPa | 0 mm | 1.79 m/s, 270° | 244 W/m² | - |
| 1788098860 | 26.67° C | 46% | 1007.7 hPa | 0 mm | 0.45 m/s, 264° | 296 W/m² | - |
| 1788098801 | 26.67° C | 45% | 1007.8 hPa | 0 mm | 1.34 m/s, 244° | 503 W/m² | - |
| 1788098737 | 26.67° C | 45% | 1007.7 hPa | 0 mm | 1.79 m/s, 257° | 156 W/m² | - |
| 1788098680 | 26.67° C | 45% | 1007.6 hPa | 0 mm | 2.24 m/s, 235° | 146 W/m² | - |
| 1788098618 | 26.67° C | 45% | 1007.7 hPa | 0 mm | 1.79 m/s, 144° | 148 W/m² | - |
| 1788098558 | 26.67° C | 45% | 1007.8 hPa | 0 mm | 0.89 m/s, 274° | 168 W/m² | - |
| 1788098498 | 26.67° C | 45% | 1007.6 hPa | 0 mm | 0.89 m/s, 260° | 167 W/m² | - |
| 1788098438 | 26.67° C | 44% | 1007.8 hPa | 0 mm | 1.79 m/s, 254° | 170 W/m² | - |
| 1788098378 | 26.67° C | 43% | 1007.8 hPa | 0 mm | 1.34 m/s, 34° | 542 W/m² | - |
| 1788098318 | 26.67° C | 44% | 1007.6 hPa | 0 mm | 0.89 m/s, 283° | 168 W/m² | - |
| 1788098258 | 27.22° C | 44% | 1007.9 hPa | 0 mm | 1.79 m/s, 225° | 149 W/m² | - |
* Rain latest hour (hover to see other rain measurements)
** Current wind speed in m/s (hover to see current wind gust speed)